createdAt,value
2023-04-01T00:04:16.874Z,83.90
2023-04-01T00:09:17.206Z,83.90
2023-04-01T00:14:16.853Z,83.93
2023-04-01T00:19:16.639Z,84.00
2023-04-01T00:24:16.034Z,84.03
2023-04-01T00:29:15.754Z,84.16
2023-04-01T00:34:15.402Z,84.20
2023-04-01T00:39:14.539Z,84.19
2023-04-01T00:44:25.949Z,84.21
2023-04-01T00:49:32.664Z,84.20
2023-04-01T00:54:34.618Z,84.20
2023-04-01T00:59:39.708Z,84.21
2023-04-01T01:04:39.383Z,84.25
2023-04-01T01:09:54.806Z,84.32
2023-04-01T01:15:09.455Z,84.38
2023-04-01T01:20:53.211Z,84.42
2023-04-01T01:26:09.128Z,84.47
2023-04-01T01:31:20.903Z,84.49
2023-04-01T01:36:26.147Z,84.64
2023-04-01T01:41:29.356Z,84.79
2023-04-01T01:46:33.384Z,84.90
2023-04-01T01:51:33.002Z,84.93
2023-04-01T01:56:37.762Z,85.00
2023-04-01T02:01:42.476Z,85.13
2023-04-01T02:06:56.106Z,85.27
2023-04-01T02:12:01.741Z,85.36
2023-04-01T02:17:08.348Z,85.39
2023-04-01T02:22:16.525Z,85.37
2023-04-01T02:27:16.691Z,85.32
2023-04-01T02:32:17.084Z,85.30
2023-04-01T02:37:17.857Z,85.29
2023-04-01T02:42:18.950Z,85.33
2023-04-01T02:47:18.854Z,85.33
2023-04-01T02:52:19.443Z,85.39
2023-04-01T02:57:18.898Z,85.46
2023-04-01T03:02:18.823Z,85.52
2023-04-01T03:07:18.112Z,85.50
2023-04-01T03:12:17.971Z,85.42
2023-04-01T03:17:22.254Z,85.33
2023-04-01T03:22:22.386Z,85.36
2023-04-01T03:27:22.030Z,85.49
2023-04-01T03:32:21.101Z,85.68
2023-04-01T03:37:21.053Z,85.71
2023-04-01T03:42:19.991Z,85.71
2023-04-01T03:47:19.654Z,85.79
2023-04-01T03:52:19.294Z,85.80
2023-04-01T03:57:18.869Z,85.84
2023-04-01T04:02:18.213Z,85.88
2023-04-01T04:07:18.077Z,85.87
2023-04-01T04:12:35.411Z,85.89
2023-04-01T04:17:34.684Z,85.82
2023-04-01T04:22:33.641Z,85.72
2023-04-01T04:27:33.620Z,85.63
2023-04-01T04:32:40.565Z,85.47
2023-04-01T04:37:39.907Z,85.39
2023-04-01T04:42:39.583Z,85.36
2023-04-01T04:47:42.092Z,85.32
2023-04-01T04:52:40.871Z,85.30
2023-04-01T04:57:40.931Z,85.25
2023-04-01T05:02:39.807Z,85.14
2023-04-01T05:07:39.201Z,85.03
2023-04-01T05:12:39.846Z,84.94
2023-04-01T05:17:40.918Z,84.82
2023-04-01T05:22:40.634Z,84.78
2023-04-01T05:27:40.676Z,84.66
2023-04-01T05:32:39.420Z,84.50
2023-04-01T05:37:40.936Z,84.39
2023-04-01T05:42:41.226Z,84.24
2023-04-01T05:47:41.218Z,84.30
2023-04-01T05:52:41.521Z,84.30
2023-04-01T05:57:41.054Z,84.15
2023-04-01T06:02:43.063Z,84.08
2023-04-01T06:07:43.484Z,83.95
2023-04-01T06:13:03.814Z,83.90
2023-04-01T06:18:48.768Z,83.68
2023-04-01T06:24:07.443Z,83.59
2023-04-01T06:29:31.547Z,83.19
2023-04-01T06:34:55.522Z,83.13
2023-04-01T06:40:45.692Z,82.47
2023-04-01T06:45:55.841Z,81.96
2023-04-01T06:51:30.747Z,81.57
2023-04-01T06:56:53.411Z,80.83
2023-04-01T07:01:59.410Z,79.93
2023-04-01T07:07:02.368Z,79.72
2023-04-01T07:12:15.686Z,79.49
2023-04-01T07:17:37.933Z,78.47
2023-04-01T07:22:41.582Z,78.14
2023-04-01T07:28:06.007Z,77.48
2023-04-01T07:33:13.752Z,77.14
2023-04-01T07:38:28.845Z,76.39
2023-04-01T07:43:56.678Z,76.71
2023-04-01T07:49:10.364Z,76.74
2023-04-01T07:54:22.294Z,76.80
2023-04-01T07:59:37.399Z,76.57
2023-04-01T08:05:07.218Z,76.43
2023-04-01T08:10:19.854Z,76.07
2023-04-01T08:15:55.949Z,75.21
2023-04-01T08:21:16.352Z,74.81
2023-04-01T08:26:28.998Z,74.97
2023-04-01T08:31:38.563Z,75.18
2023-04-01T08:36:44.522Z,75.20
2023-04-01T08:42:30.907Z,75.01
2023-04-01T08:47:59.291Z,75.59
2023-04-01T08:53:09.651Z,75.47
2023-04-01T08:58:51.606Z,74.61
2023-04-01T09:04:17.832Z,74.39
2023-04-01T09:10:09.335Z,74.11
2023-04-01T09:15:57.174Z,74.12
2023-04-01T09:21:24.675Z,73.67
2023-04-01T09:26:47.428Z,73.93
2023-04-01T09:32:16.105Z,73.89
2023-04-01T09:37:56.606Z,73.72
2023-04-01T09:43:23.865Z,73.92
2023-04-01T09:49:02.156Z,73.95
2023-04-01T09:54:23.280Z,74.29
2023-04-01T09:59:56.980Z,74.51
2023-04-01T10:06:23.867Z,74.59
2023-04-01T10:12:10.313Z,74.60
2023-04-01T10:17:51.094Z,75.21
2023-04-01T10:23:30.625Z,75.33
2023-04-01T10:29:24.646Z,75.46
2023-04-01T10:35:04.638Z,75.96
2023-04-01T10:40:45.664Z,75.90
2023-04-01T10:47:28.596Z,75.80
2023-04-01T10:52:59.551Z,74.46
2023-04-01T10:59:30.480Z,72.94
2023-04-01T11:05:31.050Z,70.91
2023-04-01T11:11:37.151Z,70.11
2023-04-01T11:17:23.654Z,69.01
2023-04-01T11:22:53.022Z,68.57
2023-04-01T11:28:24.036Z,68.92
2023-04-01T11:33:33.952Z,70.72
2023-04-01T11:38:59.912Z,72.11
2023-04-01T11:44:28.282Z,73.50
2023-04-01T11:49:58.340Z,74.45
2023-04-01T11:55:31.682Z,75.29
2023-04-01T12:01:19.145Z,75.27
2023-04-01T12:06:28.347Z,75.21
2023-04-01T12:11:37.651Z,73.14
2023-04-01T12:16:53.755Z,71.15
2023-04-01T12:22:12.551Z,69.25
2023-04-01T12:27:41.196Z,68.39
2023-04-01T12:32:53.866Z,68.46
2023-04-01T12:38:08.499Z,68.32
2023-04-01T12:43:37.709Z,68.61
2023-04-01T12:49:37.658Z,68.40
2023-04-01T12:55:25.029Z,68.56
2023-04-01T13:00:57.516Z,68.51
2023-04-01T13:06:34.722Z,69.06
2023-04-01T13:11:54.982Z,69.93
2023-04-01T13:17:04.762Z,71.79
2023-04-01T13:22:17.362Z,73.11
2023-04-01T13:27:25.907Z,74.02
2023-04-01T13:32:44.836Z,74.51
2023-04-01T13:38:03.171Z,74.80
2023-04-01T13:43:14.354Z,74.99
2023-04-01T13:48:43.329Z,75.39
2023-04-01T13:54:49.873Z,75.76
2023-04-01T14:00:08.773Z,76.56
2023-04-01T14:05:43.399Z,77.18
2023-04-01T14:10:51.396Z,77.77
2023-04-01T14:16:10.688Z,78.17
2023-04-01T14:21:25.653Z,78.39
2023-04-01T14:26:47.558Z,78.58
2023-04-01T14:32:04.930Z,78.81
2023-04-01T14:37:41.292Z,79.00
2023-04-01T14:43:07.199Z,79.22
2023-04-01T14:48:25.650Z,79.25
2023-04-01T14:53:36.278Z,79.36
2023-04-01T14:58:51.815Z,79.50
2023-04-01T15:04:07.019Z,79.69
2023-04-01T15:09:22.254Z,79.59
2023-04-01T15:14:41.292Z,79.40
2023-04-01T15:20:06.914Z,79.30
2023-04-01T15:25:31.688Z,79.38
2023-04-01T15:30:40.655Z,79.40
2023-04-01T15:35:53.281Z,79.51
2023-04-01T15:41:05.245Z,79.45
2023-04-01T15:46:28.810Z,79.30
2023-04-01T15:51:46.273Z,79.19
2023-04-01T15:57:12.221Z,79.20
2023-04-01T16:02:24.139Z,79.17
2023-04-01T16:07:45.037Z,79.25
2023-04-01T16:13:02.776Z,79.44
2023-04-01T16:18:29.700Z,79.66
2023-04-01T16:23:40.039Z,79.92
2023-04-01T16:28:50.477Z,80.07
2023-04-01T16:34:00.381Z,80.07
2023-04-01T16:39:21.132Z,79.78
2023-04-01T16:44:25.472Z,79.50
2023-04-01T16:49:35.002Z,79.49
2023-04-01T16:54:47.122Z,79.54
2023-04-01T16:59:58.538Z,79.61
2023-04-01T17:05:06.620Z,79.75
2023-04-01T17:10:37.652Z,79.75
2023-04-01T17:15:48.138Z,79.82
2023-04-01T17:20:55.976Z,79.82
2023-04-01T17:26:23.024Z,79.82
2023-04-01T17:31:40.142Z,79.80
2023-04-01T17:36:55.879Z,79.88
2023-04-01T17:42:07.478Z,79.96
2023-04-01T17:47:38.962Z,79.99
2023-04-01T17:52:46.908Z,80.01
2023-04-01T17:57:57.439Z,80.00
2023-04-01T18:03:15.177Z,80.06
2023-04-01T18:08:26.431Z,80.04
2023-04-01T18:14:05.335Z,80.07
2023-04-01T18:19:17.863Z,80.25
2023-04-01T18:24:27.247Z,80.39
2023-04-01T18:29:42.776Z,80.49
2023-04-01T18:34:57.179Z,80.50
2023-04-01T18:40:05.086Z,80.55
2023-04-01T18:45:22.011Z,80.62
2023-04-01T18:50:32.908Z,80.70
2023-04-01T18:55:50.054Z,80.76
2023-04-01T19:00:56.291Z,80.93
2023-04-01T19:05:59.263Z,81.01
2023-04-01T19:11:12.226Z,81.14
2023-04-01T19:16:26.070Z,81.22
2023-04-01T19:21:34.831Z,81.19
2023-04-01T19:26:41.706Z,81.22
2023-04-01T19:31:54.660Z,81.28
2023-04-01T19:37:00.745Z,81.31
2023-04-01T19:42:14.972Z,81.39
2023-04-01T19:47:33.222Z,81.50
2023-04-01T19:52:42.183Z,81.72
2023-04-01T19:57:54.892Z,81.88
2023-04-01T20:03:15.253Z,82.04
2023-04-01T20:08:35.100Z,82.12
2023-04-01T20:13:54.520Z,82.28
2023-04-01T20:19:00.795Z,82.43
2023-04-01T20:24:10.607Z,82.50
2023-04-01T20:29:44.372Z,82.49
2023-04-01T20:35:13.244Z,82.56
2023-04-01T20:40:38.004Z,82.55
2023-04-01T20:45:48.354Z,82.52
2023-04-01T20:50:55.852Z,82.42
2023-04-01T20:56:41.072Z,82.36
2023-04-01T21:01:56.756Z,82.17
2023-04-01T21:07:17.332Z,82.01
2023-04-01T21:12:35.202Z,81.89
2023-04-01T21:17:59.179Z,81.79
2023-04-01T21:23:24.038Z,81.67
2023-04-01T21:28:52.583Z,81.55
2023-04-01T21:34:16.135Z,81.25
2023-04-01T21:39:51.109Z,81.11
2023-04-01T21:45:25.860Z,80.99
2023-04-01T21:51:04.202Z,80.85
2023-04-01T21:56:46.389Z,80.72
2023-04-01T22:02:23.276Z,80.51
2023-04-01T22:07:27.134Z,80.46
2023-04-01T22:12:38.691Z,80.62
2023-04-01T22:17:47.719Z,80.63
2023-04-01T22:23:10.666Z,80.64
2023-04-01T22:28:19.361Z,80.61
2023-04-01T22:33:32.397Z,80.44
2023-04-01T22:38:56.905Z,80.30
2023-04-01T22:43:59.756Z,80.11
2023-04-01T22:49:10.774Z,79.85
2023-04-01T22:54:21.725Z,79.78
2023-04-01T22:59:30.785Z,79.53
2023-04-01T23:04:38.269Z,79.36
2023-04-01T23:09:41.150Z,79.22
2023-04-01T23:15:04.418Z,78.96
2023-04-01T23:20:18.273Z,78.65
2023-04-01T23:25:33.563Z,78.64
2023-04-01T23:30:54.107Z,78.65
2023-04-01T23:35:56.569Z,78.64
2023-04-01T23:40:58.053Z,78.61
2023-04-01T23:45:57.998Z,78.64
2023-04-01T23:50:57.914Z,78.54
2023-04-01T23:55:58.206Z,78.46
